createdAt,value
2022-08-30T00:02:29.251Z,1003.9
2022-08-30T00:04:29.157Z,1003.9
2022-08-30T00:06:29.175Z,1003.9
2022-08-30T00:09:29.188Z,1003.8
2022-08-30T00:11:29.501Z,1003.8
2022-08-30T00:14:29.172Z,1003.8
2022-08-30T00:16:29.164Z,1003.8
2022-08-30T00:19:29.154Z,1003.8
2022-08-30T00:21:29.181Z,1003.8
2022-08-30T00:24:29.205Z,1003.8
2022-08-30T00:27:29.135Z,1003.8
2022-08-30T00:29:29.178Z,1003.8
2022-08-30T00:32:29.171Z,1003.8
2022-08-30T00:35:29.169Z,1003.8
2022-08-30T00:37:29.182Z,1003.8
2022-08-30T00:40:29.262Z,1003.8
2022-08-30T00:42:29.176Z,1003.8
2022-08-30T00:45:29.199Z,1003.8
2022-08-30T00:48:29.180Z,1003.8
2022-08-30T00:50:29.200Z,1003.8
2022-08-30T00:53:29.163Z,1003.9
2022-08-30T00:56:29.177Z,1003.8
2022-08-30T00:58:29.191Z,1003.9
2022-08-30T01:01:30.372Z,1003.9
2022-08-30T01:04:29.184Z,1003.8
2022-08-30T01:06:32.447Z,1003.8
2022-08-30T01:08:39.436Z,1003.8
2022-08-30T01:10:39.462Z,1003.8
2022-08-30T01:13:29.184Z,1003.8
2022-08-30T01:15:29.211Z,1003.8
2022-08-30T01:17:29.207Z,1003.8
2022-08-30T01:20:29.207Z,1003.8
2022-08-30T01:23:29.205Z,1003.8
2022-08-30T01:25:29.195Z,1003.8
2022-08-30T01:28:29.234Z,1003.8
2022-08-30T01:31:29.171Z,1003.8
2022-08-30T01:33:29.222Z,1003.8
2022-08-30T01:36:29.187Z,1003.8
2022-08-30T01:38:29.230Z,1003.9
2022-08-30T01:41:29.226Z,1003.8
2022-08-30T01:44:29.172Z,1003.8
2022-08-30T01:46:29.227Z,1003.8
2022-08-30T01:48:31.125Z,1003.8
2022-08-30T01:51:29.164Z,1003.9
2022-08-30T01:53:29.216Z,1003.9
2022-08-30T01:55:29.212Z,1003.9
2022-08-30T01:58:29.190Z,1003.8
2022-08-30T02:00:29.220Z,1003.8
2022-08-30T02:02:29.227Z,1003.8
2022-08-30T02:04:29.240Z,1003.9
2022-08-30T02:07:29.224Z,1003.8
2022-08-30T02:10:29.203Z,1003.8
2022-08-30T02:13:29.193Z,1003.8
2022-08-30T02:15:30.201Z,1003.7
2022-08-30T02:18:29.272Z,1003.7
2022-08-30T02:21:29.215Z,1003.8
2022-08-30T02:26:29.243Z,1003.8
2022-08-30T02:28:29.215Z,1003.7
2022-08-30T02:31:29.221Z,1003.7
2022-08-30T02:34:29.386Z,1003.7
2022-08-30T02:36:29.536Z,1003.7
2022-08-30T02:39:29.213Z,1003.7
2022-08-30T02:42:29.233Z,1003.7
2022-08-30T02:45:29.214Z,1003.5
2022-08-30T02:48:29.185Z,1003.6
2022-08-30T02:50:29.206Z,1003.6
2022-08-30T02:53:29.196Z,1003.6
2022-08-30T02:55:29.456Z,1003.6
2022-08-30T02:59:29.239Z,1003.6
2022-08-30T03:02:29.227Z,1003.6
2022-08-30T03:05:29.304Z,1003.6
2022-08-30T03:08:29.223Z,1003.6
2022-08-30T03:10:29.227Z,1003.6
2022-08-30T03:12:29.519Z,1003.6
2022-08-30T03:15:36.321Z,1003.5
2022-08-30T03:18:29.214Z,1003.5
2022-08-30T03:21:29.208Z,1003.5
2022-08-30T03:23:29.231Z,1003.5
2022-08-30T03:26:29.222Z,1003.5
2022-08-30T03:29:29.207Z,1003.5
2022-08-30T03:31:29.250Z,1003.5
2022-08-30T03:34:29.223Z,1003.5
2022-08-30T03:37:29.187Z,1003.5
2022-08-30T03:39:29.248Z,1003.5
2022-08-30T03:42:29.195Z,1003.5
2022-08-30T03:44:29.267Z,1003.5
2022-08-30T03:46:29.221Z,1003.4
2022-08-30T03:49:29.250Z,1003.4
2022-08-30T03:51:29.235Z,1003.4
2022-08-30T03:54:29.246Z,1003.4
2022-08-30T03:56:29.276Z,1003.4
2022-08-30T03:59:29.257Z,1003.4
2022-08-30T04:02:29.297Z,1003.5
2022-08-30T04:04:29.220Z,1003.5
2022-08-30T04:06:29.238Z,1003.5
2022-08-30T04:09:29.230Z,1003.4
2022-08-30T04:12:29.211Z,1003.5
2022-08-30T04:14:29.235Z,1003.5
2022-08-30T04:16:29.339Z,1003.6
2022-08-30T04:19:29.234Z,1003.6
2022-08-30T04:21:29.219Z,1003.6
2022-08-30T04:24:29.817Z,1003.7
2022-08-30T04:27:29.208Z,1003.7
2022-08-30T04:29:29.265Z,1003.7
2022-08-30T04:32:29.275Z,1003.7
2022-08-30T04:35:29.267Z,1003.6
2022-08-30T04:37:29.232Z,1003.7
2022-08-30T04:40:29.320Z,1003.7
2022-08-30T04:42:29.245Z,1003.7
2022-08-30T04:45:29.287Z,1003.7
2022-08-30T04:48:29.280Z,1003.7
2022-08-30T04:51:29.249Z,1003.7
2022-08-30T04:53:29.230Z,1003.7
2022-08-30T04:55:29.269Z,1003.7
2022-08-30T04:58:29.267Z,1003.7
2022-08-30T05:00:30.143Z,1003.7
2022-08-30T05:03:29.248Z,1003.8
2022-08-30T05:06:29.242Z,1003.9
2022-08-30T05:08:29.247Z,1003.9
2022-08-30T05:10:29.270Z,1003.9
2022-08-30T05:13:35.091Z,1003.9
2022-08-30T05:16:29.302Z,1004
2022-08-30T05:18:29.257Z,1004
2022-08-30T05:21:29.234Z,1004.1
2022-08-30T05:24:29.245Z,1004.1
2022-08-30T05:26:29.267Z,1004
2022-08-30T05:28:29.271Z,1004
2022-08-30T05:31:29.323Z,1003.9
2022-08-30T05:33:29.267Z,1003.9
2022-08-30T05:35:29.286Z,1003.9
2022-08-30T05:37:29.263Z,1004
2022-08-30T05:40:29.368Z,1004
2022-08-30T05:42:29.262Z,1004.1
2022-08-30T05:45:29.292Z,1004.1
2022-08-30T05:48:29.276Z,1004
2022-08-30T05:50:29.310Z,1004
2022-08-30T05:53:29.269Z,1004
2022-08-30T05:55:29.346Z,1004
2022-08-30T05:58:29.292Z,1004
2022-08-30T06:01:29.342Z,1004.1
2022-08-30T06:03:29.298Z,1004.1
2022-08-30T06:06:29.246Z,1004
2022-08-30T06:08:29.298Z,1004
2022-08-30T06:10:29.286Z,1004
2022-08-30T06:12:29.510Z,1004
2022-08-30T06:15:29.287Z,1004
2022-08-30T06:18:29.341Z,1004
2022-08-30T06:21:29.264Z,1004.1
2022-08-30T06:24:41.368Z,1004
2022-08-30T06:27:29.271Z,1004
2022-08-30T06:29:29.710Z,1004
2022-08-30T06:32:29.318Z,1004
2022-08-30T06:35:29.555Z,1004
2022-08-30T06:38:29.227Z,1004
2022-08-30T06:40:29.364Z,1004
2022-08-30T06:43:29.225Z,1004
2022-08-30T06:45:29.305Z,1004.1
2022-08-30T06:48:29.314Z,1004.1
2022-08-30T06:51:29.256Z,1004.1
2022-08-30T06:53:29.274Z,1004.1
2022-08-30T06:56:31.084Z,1004.2
2022-08-30T06:58:29.312Z,1004.2
2022-08-30T07:00:29.264Z,1004.1
2022-08-30T07:02:29.380Z,1004.1
2022-08-30T07:05:29.293Z,1004.2
2022-08-30T07:08:29.266Z,1004.2
2022-08-30T07:11:29.261Z,1004.2
2022-08-30T07:13:29.263Z,1004.2
2022-08-30T07:15:29.275Z,1004.2
2022-08-30T07:17:33.973Z,1004.2
2022-08-30T07:20:29.436Z,1004.3
2022-08-30T07:23:29.288Z,1004.3
2022-08-30T07:26:29.296Z,1004.3
2022-08-30T07:29:29.265Z,1004.2
2022-08-30T07:31:29.301Z,1004.3
2022-08-30T07:34:29.316Z,1004.3
2022-08-30T07:36:29.341Z,1004.2
2022-08-30T07:39:29.397Z,1004.2
2022-08-30T07:42:29.275Z,1004.2
2022-08-30T07:44:29.303Z,1004.2
2022-08-30T07:46:29.349Z,1004.2
2022-08-30T07:49:29.309Z,1004.2
2022-08-30T07:52:30.793Z,1004.2
2022-08-30T07:54:29.309Z,1004.2
2022-08-30T07:56:29.329Z,1004.2
2022-08-30T07:59:30.862Z,1004.2
2022-08-30T08:01:29.413Z,1004.2
2022-08-30T08:03:29.317Z,1004.2
2022-08-30T08:05:29.328Z,1004.2
2022-08-30T08:07:29.343Z,1004.2
2022-08-30T08:10:29.341Z,1004.2
2022-08-30T08:13:32.605Z,1004.2
2022-08-30T08:15:29.355Z,1004.2
2022-08-30T08:17:29.304Z,1004.2
2022-08-30T08:20:29.326Z,1004.2
2022-08-30T08:23:29.307Z,1004.2
2022-08-30T08:26:29.295Z,1004.3
2022-08-30T08:28:29.318Z,1004.2
2022-08-30T08:31:31.468Z,1004.2
2022-08-30T08:33:29.310Z,1004.1
2022-08-30T08:36:29.371Z,1004.2
2022-08-30T08:38:29.406Z,1004.1
2022-08-30T08:41:29.340Z,1004.1
2022-08-30T08:43:29.310Z,1004.1
2022-08-30T08:45:29.323Z,1004.1
2022-08-30T08:48:35.895Z,1004.1
2022-08-30T08:51:29.299Z,1004.1
2022-08-30T08:53:45.667Z,1004.1
2022-08-30T08:55:29.317Z,1004.1
2022-08-30T08:58:29.367Z,1004.1
2022-08-30T09:00:29.358Z,1004.1
2022-08-30T09:03:29.313Z,1004
2022-08-30T09:05:29.332Z,1004.1
2022-08-30T09:07:29.364Z,1004.1
2022-08-30T09:10:47.423Z,1004.1
2022-08-30T09:13:29.373Z,1004
2022-08-30T09:16:29.383Z,1004.1
2022-08-30T09:18:29.345Z,1004.1
2022-08-30T09:21:29.341Z,1004
2022-08-30T09:23:29.323Z,1004.1
2022-08-30T09:26:29.358Z,1004.1
2022-08-30T09:29:29.341Z,1004
2022-08-30T09:31:29.424Z,1004
2022-08-30T09:33:29.332Z,1004
2022-08-30T09:36:29.413Z,1003.9
2022-08-30T09:38:29.339Z,1003.9
2022-08-30T09:40:29.389Z,1003.9
2022-08-30T09:43:29.336Z,1003.9
2022-08-30T09:45:29.347Z,1003.8
2022-08-30T09:48:29.371Z,1003.9
2022-08-30T09:51:29.372Z,1003.8
2022-08-30T09:54:30.264Z,1003.8
2022-08-30T09:57:33.963Z,1003.8
2022-08-30T10:00:29.410Z,1003.8
2022-08-30T10:03:36.074Z,1003.8
2022-08-30T10:05:29.367Z,1003.8
2022-08-30T10:07:29.347Z,1003.7
2022-08-30T10:09:29.363Z,1003.7
2022-08-30T10:11:29.386Z,1003.7
2022-08-30T10:13:29.357Z,1003.7
2022-08-30T10:15:29.375Z,1003.7
2022-08-30T10:18:29.342Z,1003.7
2022-08-30T10:21:29.355Z,1003.6
2022-08-30T10:24:33.294Z,1003.6
2022-08-30T10:27:29.348Z,1003.6
2022-08-30T10:29:29.354Z,1003.5
2022-08-30T10:32:29.362Z,1003.5
2022-08-30T10:35:34.045Z,1003.6
2022-08-30T10:37:29.357Z,1003.5
2022-08-30T10:39:30.847Z,1003.5
2022-08-30T10:42:29.380Z,1003.5
2022-08-30T10:45:29.340Z,1003.4
2022-08-30T10:47:30.239Z,1003.5
2022-08-30T10:49:29.692Z,1003.5
2022-08-30T10:52:29.848Z,1003.4
2022-08-30T10:55:29.383Z,1003.4
2022-08-30T10:58:29.532Z,1003.3
2022-08-30T11:01:29.370Z,1003.3
2022-08-30T11:04:29.395Z,1003.2
2022-08-30T11:07:29.359Z,1003.3
2022-08-30T11:10:29.363Z,1003.3
2022-08-30T11:13:29.367Z,1003.3
2022-08-30T11:16:29.358Z,1003.3
2022-08-30T11:18:29.367Z,1003.3
2022-08-30T11:21:29.368Z,1003.3
2022-08-30T11:24:29.378Z,1003.2
2022-08-30T11:27:29.352Z,1003.2
2022-08-30T11:29:29.382Z,1003.2
2022-08-30T11:31:29.381Z,1003.2
2022-08-30T11:34:30.008Z,1003.2
2022-08-30T11:36:37.221Z,1003.2
2022-08-30T11:39:29.401Z,1003.2
2022-08-30T11:42:29.931Z,1003.2
2022-08-30T11:44:29.417Z,1003.1
2022-08-30T11:47:29.391Z,1003.2
2022-08-30T11:50:29.414Z,1003.1
2022-08-30T11:53:29.368Z,1003.1
2022-08-30T11:55:29.421Z,1003.1
2022-08-30T11:58:29.401Z,1002.9
2022-08-30T12:01:42.177Z,1003
2022-08-30T12:03:29.581Z,1002.9
2022-08-30T12:05:29.448Z,1002.9
2022-08-30T12:08:29.381Z,1002.9
2022-08-30T12:10:29.412Z,1002.9
2022-08-30T12:13:29.393Z,1002.9
2022-08-30T12:17:29.382Z,1002.8
2022-08-30T12:19:29.413Z,1002.8
2022-08-30T12:21:29.395Z,1002.9
2022-08-30T12:24:29.367Z,1002.8
2022-08-30T12:26:29.496Z,1002.8
2022-08-30T12:28:36.741Z,1002.7
2022-08-30T12:31:29.420Z,1002.7
2022-08-30T12:33:30.338Z,1002.7
2022-08-30T12:36:23.805Z,1002.7
2022-08-30T12:38:29.395Z,1002.6
2022-08-30T12:41:29.397Z,1002.6
2022-08-30T12:43:39.104Z,1002.6
2022-08-30T12:45:29.456Z,1002.5
2022-08-30T12:48:29.438Z,1002.5
2022-08-30T12:51:29.439Z,1002.4
2022-08-30T12:54:29.421Z,1002.4
2022-08-30T12:57:35.080Z,1002.4
2022-08-30T13:00:29.400Z,1002.4
2022-08-30T13:02:29.450Z,1002.4
2022-08-30T13:04:29.413Z,1002.4
2022-08-30T13:07:29.396Z,1002.4
2022-08-30T13:09:32.348Z,1002.3
2022-08-30T13:11:29.772Z,1002.4
2022-08-30T13:14:29.411Z,1002.3
2022-08-30T13:17:29.410Z,1002.3
2022-08-30T13:20:29.412Z,1002.2
2022-08-30T13:23:29.385Z,1002.2
2022-08-30T13:25:29.403Z,1002.1
2022-08-30T13:27:29.414Z,1002.2
2022-08-30T13:30:29.414Z,1002.2
2022-08-30T13:33:29.395Z,1002.2
2022-08-30T13:36:29.425Z,1002
2022-08-30T13:38:29.401Z,1002
2022-08-30T13:40:29.436Z,1002
2022-08-30T13:43:29.417Z,1001.9
2022-08-30T13:45:42.934Z,1001.9
2022-08-30T13:47:33.144Z,1001.9
2022-08-30T13:50:30.310Z,1001.9
2022-08-30T13:53:53.946Z,1001.8
2022-08-30T13:56:29.410Z,1001.8
2022-08-30T13:59:29.443Z,1001.8
2022-08-30T14:02:29.452Z,1001.7
2022-08-30T14:05:48.679Z,1001.7
2022-08-30T14:08:46.164Z,1001.7
2022-08-30T14:10:31.130Z,1001.6
2022-08-30T14:13:29.624Z,1001.7
2022-08-30T14:15:29.446Z,1001.7
2022-08-30T14:17:29.527Z,1001.6
2022-08-30T14:20:29.476Z,1001.5
2022-08-30T14:22:29.499Z,1001.5
2022-08-30T14:25:29.456Z,1001.4
2022-08-30T14:27:29.459Z,1001.4
2022-08-30T14:29:29.447Z,1001.4
2022-08-30T14:32:29.437Z,1001.4
2022-08-30T14:34:29.644Z,1001.3
2022-08-30T14:37:29.446Z,1001.2
2022-08-30T14:39:29.454Z,1001.2
2022-08-30T14:42:29.418Z,1001.2
2022-08-30T14:44:37.514Z,1001.2
2022-08-30T14:47:29.995Z,1001.2
2022-08-30T14:50:29.448Z,1001.2
2022-08-30T14:53:29.464Z,1001.2
2022-08-30T14:56:29.463Z,1001.2
2022-08-30T14:59:29.466Z,1001.2
2022-08-30T15:02:29.477Z,1001.1
2022-08-30T15:04:36.685Z,1001.1
2022-08-30T15:06:29.453Z,1001.1
2022-08-30T15:08:29.485Z,1001.1
2022-08-30T15:13:34.265Z,1001.1
2022-08-30T15:14:29.442Z,1001.1
2022-08-30T15:17:29.447Z,1001
2022-08-30T15:19:29.471Z,1001
2022-08-30T15:21:29.611Z,1001
2022-08-30T15:24:30.095Z,1001
2022-08-30T15:26:29.485Z,1001
2022-08-30T15:28:29.500Z,1001
2022-08-30T15:31:29.559Z,1001.1
2022-08-30T15:33:29.498Z,1001
2022-08-30T15:35:29.506Z,1001
2022-08-30T15:38:29.524Z,1001.1
2022-08-30T15:41:29.512Z,1001
2022-08-30T15:43:29.502Z,1001
2022-08-30T15:46:30.145Z,1001
2022-08-30T15:49:29.451Z,1001
2022-08-30T15:51:30.741Z,1001
2022-08-30T15:53:29.492Z,1000.9
2022-08-30T15:55:29.513Z,1000.9
2022-08-30T15:57:29.520Z,1000.9
2022-08-30T16:00:29.619Z,1000.9
2022-08-30T16:03:29.526Z,1000.9
2022-08-30T16:06:29.515Z,1000.9
2022-08-30T16:09:29.923Z,1000.9
2022-08-30T16:11:29.510Z,1000.9
2022-08-30T16:14:29.563Z,1000.8
2022-08-30T16:17:29.555Z,1000.8
2022-08-30T16:20:29.509Z,1000.8
2022-08-30T16:22:29.523Z,1000.8
2022-08-30T16:25:39.825Z,1000.8
2022-08-30T16:27:29.533Z,1000.8
2022-08-30T16:30:29.577Z,1000.8
2022-08-30T16:33:29.518Z,1000.8
2022-08-30T16:35:29.537Z,1000.8
2022-08-30T16:37:32.681Z,1000.8
2022-08-30T16:40:29.594Z,1000.8
2022-08-30T16:43:29.491Z,1000.8
2022-08-30T16:46:01.796Z,1000.8
2022-08-30T16:48:29.545Z,1000.8
2022-08-30T16:51:29.524Z,1000.8
2022-08-30T16:53:29.546Z,1000.8
2022-08-30T16:56:29.856Z,1000.8
2022-08-30T16:59:29.510Z,1000.8
2022-08-30T17:01:29.563Z,1000.8
2022-08-30T17:04:29.505Z,1000.8
2022-08-30T17:06:29.521Z,1000.7
2022-08-30T17:09:29.531Z,1000.8
2022-08-30T17:12:29.538Z,1000.8
2022-08-30T17:14:29.531Z,1000.8
2022-08-30T17:16:29.665Z,1000.8
2022-08-30T17:19:29.571Z,1000.8
2022-08-30T17:21:29.546Z,1000.8
2022-08-30T17:24:29.525Z,1000.9
2022-08-30T17:26:29.561Z,1000.9
2022-08-30T17:28:29.545Z,1000.9
2022-08-30T17:30:29.560Z,1000.9
2022-08-30T17:33:29.522Z,1000.9
2022-08-30T17:36:29.535Z,1000.9
2022-08-30T17:38:29.565Z,1001
2022-08-30T17:41:29.541Z,1000.9
2022-08-30T17:44:29.611Z,1001
2022-08-30T17:46:29.605Z,1001
2022-08-30T17:49:29.589Z,1001
2022-08-30T17:52:29.544Z,1001
2022-08-30T17:55:30.652Z,1001
2022-08-30T17:57:29.600Z,1001
2022-08-30T18:00:29.591Z,1001.1
2022-08-30T18:03:29.572Z,1001.1
2022-08-30T18:05:29.583Z,1001.2
2022-08-30T18:08:29.531Z,1001.2
2022-08-30T18:10:33.001Z,1001.2
2022-08-30T18:12:29.553Z,1001.2
2022-08-30T18:14:29.542Z,1001.3
2022-08-30T18:17:29.549Z,1001.3
2022-08-30T18:20:31.271Z,1001.3
2022-08-30T18:22:29.607Z,1001.3
2022-08-30T18:25:29.893Z,1001.3
2022-08-30T18:28:29.530Z,1001.2
2022-08-30T18:30:33.659Z,1001.3
2022-08-30T18:32:32.859Z,1001.3
2022-08-30T18:34:29.571Z,1001.3
2022-08-30T18:37:29.548Z,1001.3
2022-08-30T18:40:29.629Z,1001.3
2022-08-30T18:42:29.757Z,1001.3
2022-08-30T18:45:29.560Z,1001.3
2022-08-30T18:48:29.565Z,1001.4
2022-08-30T18:50:29.572Z,1001.4
2022-08-30T18:52:29.587Z,1001.4
2022-08-30T18:54:29.609Z,1001.4
2022-08-30T18:57:29.574Z,1001.5
2022-08-30T19:00:29.592Z,1001.5
2022-08-30T19:02:29.596Z,1001.5
2022-08-30T19:05:29.607Z,1001.5
2022-08-30T19:08:29.579Z,1001.6
2022-08-30T19:10:29.590Z,1001.6
2022-08-30T19:12:29.576Z,1001.6
2022-08-30T19:14:29.606Z,1001.6
2022-08-30T19:17:29.592Z,1001.6
2022-08-30T19:20:29.563Z,1001.6
2022-08-30T19:22:36.050Z,1001.6
2022-08-30T19:25:29.618Z,1001.6
2022-08-30T19:28:29.611Z,1001.7
2022-08-30T19:30:30.127Z,1001.7
2022-08-30T19:33:29.585Z,1001.7
2022-08-30T19:36:29.575Z,1001.8
2022-08-30T19:38:29.608Z,1001.8
2022-08-30T19:41:29.646Z,1001.8
2022-08-30T19:44:29.594Z,1001.8
2022-08-30T19:46:29.622Z,1001.8
2022-08-30T19:49:29.575Z,1001.8
2022-08-30T19:51:29.627Z,1001.9
2022-08-30T19:54:29.624Z,1001.9
2022-08-30T19:57:29.578Z,1001.9
2022-08-30T19:59:29.563Z,1001.8
2022-08-30T20:01:33.416Z,1001.9
2022-08-30T20:04:29.582Z,1001.8
2022-08-30T20:06:29.578Z,1001.9
2022-08-30T20:08:29.627Z,1001.9
2022-08-30T20:11:29.594Z,1001.9
2022-08-30T20:13:29.626Z,1001.9
2022-08-30T20:16:35.585Z,1001.9
2022-08-30T20:19:29.610Z,1001.9
2022-08-30T20:22:29.619Z,1001.9
2022-08-30T20:24:29.634Z,1001.9
2022-08-30T20:27:29.628Z,1001.9
2022-08-30T20:29:29.620Z,1001.9
2022-08-30T20:32:29.601Z,1001.9
2022-08-30T20:34:29.622Z,1001.9
2022-08-30T20:36:29.638Z,1001.9
2022-08-30T20:39:29.622Z,1001.8
2022-08-30T20:41:29.629Z,1001.9
2022-08-30T20:43:29.652Z,1001.8
2022-08-30T20:45:31.021Z,1001.8
2022-08-30T20:48:29.690Z,1001.8
2022-08-30T20:50:29.694Z,1001.8
2022-08-30T20:53:29.655Z,1001.8
2022-08-30T20:56:29.641Z,1001.9
2022-08-30T20:58:29.660Z,1001.8
2022-08-30T21:00:29.676Z,1001.8
2022-08-30T21:03:29.599Z,1001.8
2022-08-30T21:05:29.602Z,1001.8
2022-08-30T21:07:29.698Z,1001.8
2022-08-30T21:10:29.600Z,1001.8
2022-08-30T21:12:29.619Z,1001.8
2022-08-30T21:14:29.651Z,1001.8
2022-08-30T21:17:29.669Z,1001.9
2022-08-30T21:20:29.662Z,1001.9
2022-08-30T21:23:29.591Z,1001.9
2022-08-30T21:25:29.862Z,1002
2022-08-30T21:28:29.638Z,1002
2022-08-30T21:30:29.709Z,1002
2022-08-30T21:33:29.635Z,1002
2022-08-30T21:35:29.619Z,1002
2022-08-30T21:37:32.005Z,1002
2022-08-30T21:40:30.000Z,1002
2022-08-30T21:43:29.665Z,1002.1
2022-08-30T21:46:29.720Z,1002.1
2022-08-30T21:49:29.604Z,1002.1
2022-08-30T21:51:29.631Z,1002.1
2022-08-30T21:53:29.675Z,1002.1
2022-08-30T21:56:29.638Z,1002.1
2022-08-30T21:59:29.655Z,1002.2
2022-08-30T22:01:29.696Z,1002.1
2022-08-30T22:04:29.667Z,1002.2
2022-08-30T22:07:29.661Z,1002.3
2022-08-30T22:10:32.969Z,1002.3
2022-08-30T22:13:29.648Z,1002.3
2022-08-30T22:16:29.655Z,1002.3
2022-08-30T22:18:29.644Z,1002.4
2022-08-30T22:20:30.460Z,1002.4
2022-08-30T22:23:29.658Z,1002.5
2022-08-30T22:26:29.656Z,1002.5
2022-08-30T22:29:29.671Z,1002.5
2022-08-30T22:31:29.762Z,1002.6
2022-08-30T22:34:29.661Z,1002.6
2022-08-30T22:37:29.652Z,1002.6
2022-08-30T22:39:29.665Z,1002.6
2022-08-30T22:42:29.658Z,1002.6
2022-08-30T22:45:29.684Z,1002.6
2022-08-30T22:47:29.673Z,1002.7
2022-08-30T22:49:29.694Z,1002.7
2022-08-30T22:52:29.622Z,1002.7
2022-08-30T22:54:29.655Z,1002.7
2022-08-30T22:57:29.684Z,1002.8
2022-08-30T22:59:30.421Z,1002.7
2022-08-30T23:02:29.807Z,1002.8
2022-08-30T23:04:29.683Z,1002.8
2022-08-30T23:07:29.673Z,1002.8
2022-08-30T23:09:29.686Z,1002.8
2022-08-30T23:11:30.641Z,1002.8
2022-08-30T23:14:29.695Z,1002.8
2022-08-30T23:16:29.709Z,1002.8
2022-08-30T23:19:29.699Z,1002.8
2022-08-30T23:21:29.700Z,1002.8
2022-08-30T23:23:29.725Z,1002.8
2022-08-30T23:25:30.110Z,1002.8
2022-08-30T23:28:30.438Z,1002.8
2022-08-30T23:31:29.752Z,1002.9
2022-08-30T23:33:29.734Z,1002.9
2022-08-30T23:36:29.724Z,1002.9
2022-08-30T23:38:29.719Z,1002.9
2022-08-30T23:40:29.781Z,1002.9
2022-08-30T23:43:29.706Z,1002.9
2022-08-30T23:45:29.775Z,1003
2022-08-30T23:48:29.700Z,1003
2022-08-30T23:50:29.711Z,1003.1
2022-08-30T23:53:29.716Z,1003.2
2022-08-30T23:55:29.710Z,1003.2
2022-08-30T23:58:29.729Z,1003.2
